Thunder radar more information blitzortung!


Radar de pluja more information rain snow radar


Visita la nostra xarxa de llocs de meteo:

Template documentation
and downloads

And another site



No particular awareness of the weather is required.    There are no Weather-warnings

Pagina Historial Weather Underground text

Diari Resum Abril 24, 2016 Unitats:  Mètric    Imperial   Tant
« Previous Dia
SegĂźent Dia »
Diari Setmana Mensual Anual Personalitzada
  Maxima: Minima: Media:
Temperatura: 23.6 °C 8.2 °C 15.3 °C
Punt de rosada: 9.1 °C -0.2 °C 6.5 °C
Humitat: 81 % 29 % 58 %
Wind Speed: 22.2 km/h 0.0 km/h 8.2 km/h
RĂ fegues de vent: 22.2 km/h - -
Vent:- - SSE
Pression baro: 1017.8 hPa 1011.7 hPa -
Precipitacions: 0.0 mm    
Historical Graphs
 
 
Dades de taula per Abril 24, 2016
Temps Temperatura Punt de rosada Pression baro Vent Wind Speed RĂ fegues de vent Humitat Rainfall Rate (Hourly)
00:00 8.4 °C 5.3 °C 1012.8 hPa Calm   1.6 km/h 81 % 0.0 mm
00:01 9.9 °C 6.2 °C 1013.8 hPa SW 3.9 km/h 3.9 km/h 78 % 0.0 mm
00:06 9.8 °C 6.3 °C 1013.8 hPa SW 3.7 km/h 3.7 km/h 79 % 0.0 mm
00:10 8.4 °C 5.3 °C 1012.8 hPa WSW 1.6 km/h 1.6 km/h 81 % 0.0 mm
00:11 9.8 °C 6.3 °C 1013.8 hPa SW 1.9 km/h   79 % 0.0 mm
00:16 9.8 °C 6.3 °C 1013.8 hPa SW 3.7 km/h 3.7 km/h 79 % 0.0 mm
00:20 8.3 °C 5.2 °C 1011.7 hPa WSW 1.6 km/h 3.2 km/h 81 % 0.0 mm
00:21 9.9 °C 6.4 °C 1013.8 hPa WSW 1.9 km/h 1.9 km/h 79 % 0.0 mm
00:30 8.3 °C 5.2 °C 1012.8 hPa SW 1.6 km/h 3.2 km/h 81 % 0.0 mm
00:40 8.3 °C 5.2 °C 1012.8 hPa SW 1.6 km/h 3.2 km/h 81 % 0.0 mm
00:50 8.4 °C 5.3 °C 1011.7 hPa WSW 1.6 km/h 3.2 km/h 81 % 0.0 mm
01:00 8.4 °C 5.3 °C 1011.7 hPa WSW 3.2 km/h 4.8 km/h 81 % 0.0 mm
01:10 8.5 °C 5.4 °C 1011.7 hPa West 1.6 km/h 1.6 km/h 81 % 0.0 mm
01:20 8.4 °C 5.3 °C 1011.7 hPa West 1.6 km/h 1.6 km/h 81 % 0.0 mm
01:30 8.3 °C 5.2 °C 1012.8 hPa SW 1.6 km/h 1.6 km/h 81 % 0.0 mm
01:40 8.3 °C 5.2 °C 1012.8 hPa West 1.6 km/h 1.6 km/h 81 % 0.0 mm
01:50 8.3 °C 5.2 °C 1012.8 hPa Calm   3.2 km/h 81 % 0.0 mm
02:00 8.2 °C 4.9 °C 1012.8 hPa Calm   1.6 km/h 80 % 0.0 mm
02:10 8.2 °C 4.9 °C 1012.8 hPa WNW 1.6 km/h 3.2 km/h 80 % 0.0 mm
02:20 8.3 °C 4.9 °C 1013.8 hPa NW 1.6 km/h 3.2 km/h 79 % 0.0 mm
02:30 8.5 °C 5.1 °C 1013.8 hPa NW 1.6 km/h 4.8 km/h 79 % 0.0 mm
02:40 9.0 °C 5.6 °C 1013.8 hPa North 1.6 km/h 3.2 km/h 79 % 0.0 mm
02:50 9.2 °C 5.6 °C 1013.8 hPa NNE 3.2 km/h 3.2 km/h 78 % 0.0 mm
03:00 9.2 °C 5.6 °C 1013.8 hPa WNW 1.6 km/h 6.4 km/h 78 % 0.0 mm
03:10 9.6 °C 5.8 °C 1013.8 hPa WNW 1.6 km/h 3.2 km/h 77 % 0.0 mm
03:20 10.2 °C 6.2 °C 1013.8 hPa NNE 3.2 km/h 6.4 km/h 76 % 0.0 mm
03:30 10.6 °C 6.3 °C 1013.8 hPa NE 3.2 km/h 8.0 km/h 75 % 0.0 mm
03:40 11.0 °C 6.6 °C 1013.8 hPa NE 1.6 km/h 8.0 km/h 74 % 0.0 mm
03:50 11.4 °C 6.7 °C 1013.8 hPa NE 1.6 km/h 4.8 km/h 73 % 0.0 mm
04:00 11.8 °C 7.1 °C 1013.8 hPa NNE 3.2 km/h 6.4 km/h 73 % 0.0 mm
04:10 12.1 °C 7.0 °C 1013.8 hPa NNE 1.6 km/h 4.8 km/h 71 % 0.0 mm
04:20 12.4 °C 7.1 °C 1012.8 hPa NE 3.2 km/h 6.4 km/h 70 % 0.0 mm
04:30 12.5 °C 6.9 °C 1013.8 hPa NE 4.8 km/h 8.0 km/h 69 % 0.0 mm
04:40 12.8 °C 7.1 °C 1013.8 hPa ENE 3.2 km/h 6.4 km/h 68 % 0.0 mm
04:50 13.2 °C 7.4 °C 1013.8 hPa ENE 3.2 km/h 8.0 km/h 68 % 0.0 mm
05:00 13.8 °C 8.0 °C 1013.8 hPa ENE 3.2 km/h 4.8 km/h 68 % 0.0 mm
05:10 13.6 °C 7.4 °C 1013.8 hPa NE 4.8 km/h 6.4 km/h 66 % 0.0 mm
05:20 14.2 °C 8.2 °C 1013.8 hPa NE 1.6 km/h 4.8 km/h 67 % 0.0 mm
05:30 14.7 °C 8.2 °C 1013.8 hPa NNE 4.8 km/h 4.8 km/h 65 % 0.0 mm
05:40 14.0 °C 7.3 °C 1013.8 hPa NE 11.3 km/h 11.3 km/h 64 % 0.0 mm
05:50 14.5 °C 7.8 °C 1013.8 hPa NE 4.8 km/h 8.0 km/h 64 % 0.0 mm
06:00 15.5 °C 8.5 °C 1013.8 hPa ENE 1.6 km/h 6.4 km/h 63 % 0.0 mm
06:10 15.9 °C 8.4 °C 1013.8 hPa ENE 3.2 km/h 6.4 km/h 61 % 0.0 mm
06:20 16.6 °C 9.1 °C 1013.8 hPa NNE 3.2 km/h 6.4 km/h 61 % 0.0 mm
06:30 17.0 °C 8.9 °C 1013.8 hPa WNW 3.2 km/h 8.0 km/h 59 % 0.0 mm
06:40 17.4 °C 8.0 °C 1013.8 hPa WSW 8.0 km/h 12.9 km/h 54 % 0.0 mm
06:50 17.6 °C 7.6 °C 1013.8 hPa WSW 8.0 km/h 9.7 km/h 52 % 0.0 mm
07:00 18.1 °C 7.8 °C 1013.8 hPa WSW 3.2 km/h 11.3 km/h 51 % 0.0 mm
07:20 18.6 °C 7.7 °C 1013.8 hPa WSW 4.8 km/h 14.5 km/h 49 % 0.0 mm
12:34 19.2 °C 7.3 °C 1013.8 hPa WNW 7.4 km/h 7.4 km/h 46 % 0.0 mm
12:39 19.4 °C 7.5 °C 1013.8 hPa SW 7.4 km/h 7.4 km/h 46 % 0.0 mm
12:44 19.7 °C 8.1 °C 1012.8 hPa SSW 7.6 km/h 7.6 km/h 47 % 0.0 mm
12:49 19.8 °C 7.5 °C 1012.8 hPa SW 7.4 km/h 7.4 km/h 45 % 0.0 mm
12:54 19.8 °C 7.2 °C 1012.8 hPa SW 9.3 km/h 9.3 km/h 44 % 0.0 mm
12:59 20.0 °C 7.1 °C 1012.8 hPa SW 14.8 km/h 14.8 km/h 43 % 0.0 mm
13:09 19.9 °C 6.6 °C 1012.8 hPa WSW 7.4 km/h 7.4 km/h 42 % 0.0 mm
13:14 20.3 °C 6.9 °C 1012.8 hPa WSW 9.3 km/h 9.3 km/h 42 % 0.0 mm
13:19 20.4 °C 7.1 °C 1012.8 hPa West 9.5 km/h 9.5 km/h 42 % 0.0 mm
13:24 20.7 °C 7.3 °C 1012.8 hPa West 9.3 km/h 9.3 km/h 42 % 0.0 mm
13:29 20.8 °C 7.1 °C 1011.7 hPa WNW 7.4 km/h 7.4 km/h 41 % 0.0 mm
13:34 20.9 °C 6.8 °C 1011.7 hPa SW 11.1 km/h 11.1 km/h 40 % 0.0 mm
13:39 21.0 °C 6.5 °C 1011.7 hPa West 9.3 km/h 9.3 km/h 39 % 0.0 mm
13:44 21.1 °C 6.6 °C 1011.7 hPa WSW 10.0 km/h 10.0 km/h 39 % 0.0 mm
13:49 21.0 °C 6.1 °C 1011.7 hPa WSW 9.3 km/h 9.3 km/h 38 % 0.0 mm
13:54 21.2 °C 6.3 °C 1011.7 hPa SW 11.1 km/h 11.1 km/h 38 % 0.0 mm
13:59 21.1 °C 6.2 °C 1011.7 hPa SW 9.3 km/h 9.3 km/h 38 % 0.0 mm
14:04 20.9 °C 5.3 °C 1011.7 hPa WSW 13.0 km/h 13.0 km/h 36 % 0.0 mm
14:09 21.0 °C 5.3 °C 1011.7 hPa WSW 14.8 km/h 14.8 km/h 36 % 0.0 mm
14:14 21.7 °C 6.4 °C 1011.7 hPa WSW 11.1 km/h 11.1 km/h 37 % 0.0 mm
14:19 21.6 °C 5.9 °C 1011.7 hPa SW 7.4 km/h 7.4 km/h 36 % 0.0 mm
14:24 21.5 °C 4.9 °C 1011.7 hPa WNW 11.1 km/h 11.1 km/h 34 % 0.0 mm
14:29 22.0 °C 5.4 °C 1012.8 hPa ENE 9.0 km/h 9.0 km/h 34 % 0.0 mm
14:34 21.9 °C 5.3 °C 1012.8 hPa West 9.3 km/h 9.3 km/h 34 % 0.0 mm
14:39 22.1 °C 5.5 °C 1012.8 hPa WSW 9.3 km/h 9.3 km/h 34 % 0.0 mm
14:44 22.0 °C 5.0 °C 1012.8 hPa ENE 5.6 km/h 5.6 km/h 33 % 0.0 mm
14:49 22.2 °C 5.2 °C 1012.8 hPa WNW 18.0 km/h 18.0 km/h 33 % 0.0 mm
14:54 22.2 °C 5.2 °C 1012.8 hPa West 14.8 km/h 14.8 km/h 33 % 0.0 mm
14:59 22.1 °C 5.1 °C 1012.8 hPa SW 5.6 km/h 5.6 km/h 33 % 0.0 mm
15:04 22.3 °C 4.8 °C 1012.8 hPa South 7.4 km/h 7.4 km/h 32 % 0.0 mm
15:09 22.1 °C 4.6 °C 1012.8 hPa WSW 7.4 km/h 7.4 km/h 32 % 0.0 mm
15:14 22.6 °C 5.1 °C 1012.8 hPa SSW 7.4 km/h 7.4 km/h 32 % 0.0 mm
15:19 22.4 °C 4.9 °C 1012.8 hPa NW 11.1 km/h 11.1 km/h 32 % 0.0 mm
15:24 22.6 °C 5.1 °C 1012.8 hPa West 7.6 km/h 7.6 km/h 32 % 0.0 mm
15:29 23.0 °C 4.9 °C 1012.8 hPa SW 7.4 km/h 7.4 km/h 31 % 0.0 mm
15:34 22.7 °C 4.7 °C 1012.8 hPa WSW 9.3 km/h 9.3 km/h 31 % 0.0 mm
15:39 22.9 °C 5.3 °C 1012.8 hPa West 5.3 km/h 5.3 km/h 32 % 0.0 mm
15:44 22.8 °C 4.8 °C 1012.8 hPa WSW 9.3 km/h 9.3 km/h 31 % 0.0 mm
15:54 22.9 °C 4.4 °C 1012.8 hPa West 9.3 km/h 9.3 km/h 30 % 0.0 mm
15:59 23.2 °C 4.2 °C 1011.7 hPa SW 9.3 km/h 9.3 km/h 29 % 0.0 mm
16:04 23.6 °C 4.5 °C 1011.7 hPa WNW 6.4 km/h 6.4 km/h 29 % 0.0 mm
16:09 23.0 °C 4.0 °C 1011.7 hPa WNW 7.6 km/h 7.6 km/h 29 % 0.0 mm
16:14 23.2 °C 4.2 °C 1011.7 hPa NW 5.6 km/h 5.6 km/h 29 % 0.0 mm
16:19 22.6 °C 4.6 °C 1011.7 hPa ESE 9.3 km/h 9.3 km/h 31 % 0.0 mm
16:24 21.6 °C 4.6 °C 1011.7 hPa ESE 11.1 km/h 11.1 km/h 33 % 0.0 mm
16:29 21.3 °C 4.8 °C 1011.7 hPa ENE 5.6 km/h 5.6 km/h 34 % 0.0 mm
16:34 21.1 °C 4.6 °C 1011.7 hPa ENE 9.3 km/h 9.3 km/h 34 % 0.0 mm
16:39 21.0 °C 5.3 °C 1011.7 hPa NE 11.1 km/h 11.1 km/h 36 % 0.0 mm
16:44 20.8 °C 5.9 °C 1011.7 hPa ENE 13.0 km/h 13.0 km/h 38 % 0.0 mm
16:49 20.2 °C 5.8 °C 1011.7 hPa East 18.5 km/h 18.5 km/h 39 % 0.0 mm
16:54 19.3 °C 5.7 °C 1011.7 hPa ESE 15.6 km/h 15.6 km/h 41 % 0.0 mm
16:59 19.0 °C 5.8 °C 1011.7 hPa ENE 13.0 km/h 13.0 km/h 42 % 0.0 mm
17:04 18.6 °C 5.8 °C 1011.7 hPa East 13.0 km/h 13.0 km/h 43 % 0.0 mm
17:09 18.6 °C 6.4 °C 1011.7 hPa ENE 16.7 km/h 16.7 km/h 45 % 0.0 mm
17:14 18.4 °C 6.6 °C 1011.7 hPa ESE 16.7 km/h 16.7 km/h 46 % 0.0 mm
17:19 18.4 °C 6.6 °C 1011.7 hPa NE 14.8 km/h 14.8 km/h 46 % 0.0 mm
17:24 18.1 °C 6.9 °C 1011.7 hPa WNW 14.8 km/h 14.8 km/h 48 % 0.0 mm
17:29 18.0 °C 7.1 °C 1011.7 hPa ENE 16.7 km/h 16.7 km/h 49 % 0.0 mm
17:34 18.1 °C 7.5 °C 1011.7 hPa SE 22.0 km/h 22.0 km/h 50 % 0.0 mm
17:39 17.7 °C 7.2 °C 1011.7 hPa ESE 20.4 km/h 20.4 km/h 50 % 0.0 mm
17:49 17.3 °C 7.1 °C 1011.7 hPa ENE 14.8 km/h 14.8 km/h 51 % 0.0 mm
17:54 17.1 °C 6.9 °C 1011.7 hPa ESE 13.0 km/h 14.8 km/h 51 % 0.0 mm
18:04 16.9 °C 7.3 °C 1011.7 hPa ENE 14.8 km/h 14.8 km/h 53 % 0.0 mm
18:09 17.0 °C 7.1 °C 1011.7 hPa ENE 20.4 km/h 20.4 km/h 52 % 0.0 mm
18:14 17.1 °C 7.4 °C 1011.7 hPa East 11.1 km/h 11.1 km/h 53 % 0.0 mm
18:19 16.9 °C 7.5 °C 1011.7 hPa East 20.4 km/h 20.4 km/h 54 % 0.0 mm
18:24 16.9 °C 7.5 °C 1011.7 hPa ENE 13.0 km/h 13.0 km/h 54 % 0.0 mm
18:29 16.8 °C 7.4 °C 1011.7 hPa SE 13.7 km/h 13.7 km/h 54 % 0.0 mm
18:34 16.8 °C 7.4 °C 1011.7 hPa ENE 13.0 km/h 13.0 km/h 54 % 0.0 mm
18:39 16.7 °C 7.3 °C 1011.7 hPa ESE 16.7 km/h 16.7 km/h 54 % 0.0 mm
18:44 16.8 °C 7.4 °C 1011.7 hPa ENE 18.5 km/h 18.5 km/h 54 % 0.0 mm
18:49 16.6 °C 7.5 °C 1011.7 hPa ENE 16.7 km/h 16.7 km/h 55 % 0.0 mm
18:54 16.5 °C 7.4 °C 1011.7 hPa ENE 20.4 km/h 20.4 km/h 55 % 0.0 mm
18:59 16.5 °C 7.4 °C 1011.7 hPa ESE 13.0 km/h 13.0 km/h 55 % 0.0 mm
19:04 16.5 °C 7.4 °C 1011.7 hPa ESE 13.0 km/h 13.0 km/h 55 % 0.0 mm
19:09 16.3 °C 7.2 °C 1011.7 hPa ENE 14.8 km/h 14.8 km/h 55 % 0.0 mm
19:10 12.5 °C 7.6 °C 1015.8 hPa NE 3.2 km/h 3.2 km/h 72 % 0.0 mm
19:14 16.2 °C 7.2 °C 1012.8 hPa ESE 13.0 km/h 15.6 km/h 55 % 0.0 mm
19:19 16.0 °C 7.5 °C 1012.8 hPa ESE 20.4 km/h 20.4 km/h 57 % 0.0 mm
19:20 12.4 °C 7.5 °C 1015.8 hPa NE 1.6 km/h 3.2 km/h 72 % 0.0 mm
19:24 16.0 °C 7.5 °C 1012.8 hPa NE 13.0 km/h 13.0 km/h 57 % 0.0 mm
19:29 15.9 °C 7.7 °C 1012.8 hPa ENE 18.5 km/h 18.5 km/h 58 % 0.0 mm
19:30 12.3 °C 7.4 °C 1015.8 hPa Calm   3.2 km/h 72 % 0.0 mm
19:34 15.7 °C 7.4 °C 1012.8 hPa ESE 17.5 km/h 17.5 km/h 58 % 0.0 mm
19:39 15.6 °C 7.6 °C 1012.8 hPa ESE 17.2 km/h 17.2 km/h 59 % 0.0 mm
19:40 12.1 °C 7.2 °C 1015.8 hPa ENE 1.6 km/h 1.6 km/h 72 % 0.0 mm
19:44 15.5 °C 7.5 °C 1013.8 hPa ENE 15.8 km/h 15.8 km/h 59 % 0.0 mm
19:50 11.8 °C 7.1 °C 1015.8 hPa Calm     73 % 0.0 mm
19:54 15.2 °C 7.7 °C 1013.8 hPa ESE 13.0 km/h 13.0 km/h 61 % 0.0 mm
19:59 15.1 °C 7.9 °C 1013.8 hPa ESE 22.2 km/h 22.2 km/h 62 % 0.0 mm
20:00 11.7 °C 6.6 °C 1015.8 hPa NNW 3.2 km/h 3.2 km/h 71 % 0.0 mm
20:04 15.0 °C 7.8 °C 1013.8 hPa East 11.9 km/h 11.9 km/h 62 % 0.0 mm
20:10 11.6 °C 7.1 °C 1015.8 hPa Calm   1.6 km/h 74 % 0.0 mm
20:14 14.7 °C 7.7 °C 1013.8 hPa ESE 13.0 km/h 13.0 km/h 63 % 0.0 mm
20:19 14.7 °C 7.7 °C 1013.8 hPa ESE 4.2 km/h 4.2 km/h 63 % 0.0 mm
20:24 14.6 °C 7.9 °C 1013.8 hPa East 14.8 km/h 14.8 km/h 64 % 0.0 mm
20:30 11.3 °C 6.8 °C 1015.8 hPa West 1.6 km/h 1.6 km/h 74 % 0.0 mm
20:34 14.4 °C 8.1 °C 1013.8 hPa ENE 13.0 km/h 13.0 km/h 66 % 0.0 mm
20:39 14.3 °C 8.1 °C 1013.8 hPa ENE 13.0 km/h 13.0 km/h 66 % 0.0 mm
20:40 11.1 °C 6.2 °C 1015.8 hPa WSW 3.2 km/h 3.2 km/h 72 % 0.0 mm
20:44 14.2 °C 8.2 °C 1013.8 hPa East 7.4 km/h 7.4 km/h 67 % 0.0 mm
20:49 14.2 °C 8.2 °C 1013.8 hPa East 9.3 km/h 9.3 km/h 67 % 0.0 mm
20:50 10.8 °C 5.7 °C 1015.8 hPa Calm   1.6 km/h 71 % 0.0 mm
20:54 14.1 °C 8.3 °C 1013.8 hPa ENE 13.0 km/h 13.0 km/h 68 % 0.0 mm
20:59 14.0 °C 8.4 °C 1013.8 hPa East 7.4 km/h 7.4 km/h 69 % 0.0 mm
21:00 10.4 °C 4.9 °C 1015.8 hPa Calm     69 % 0.0 mm
21:04 13.9 °C 8.3 °C 1013.8 hPa ENE 9.3 km/h 9.3 km/h 69 % 0.0 mm
21:09 13.8 °C 8.2 °C 1013.8 hPa ENE 9.3 km/h 10.0 km/h 69 % 0.0 mm
21:10 10.2 °C 4.6 °C 1015.8 hPa SW 1.6 km/h 1.6 km/h 68 % 0.0 mm
21:14 13.7 °C 8.3 °C 1013.8 hPa ESE 15.6 km/h 15.6 km/h 70 % 0.0 mm
21:19 13.7 °C 8.3 °C 1013.8 hPa East 9.3 km/h 9.3 km/h 70 % 0.0 mm
21:20 10.3 °C 3.8 °C 1015.8 hPa WSW 3.2 km/h 4.8 km/h 64 % 0.0 mm
21:24 13.6 °C 8.7 °C 1013.8 hPa East 14.8 km/h 14.8 km/h 72 % 0.0 mm
21:29 13.6 °C 8.2 °C 1013.8 hPa East 13.0 km/h 13.0 km/h 70 % 0.0 mm
21:30 10.7 °C 3.5 °C 1015.8 hPa West 3.2 km/h 4.8 km/h 61 % 0.0 mm
21:34 13.5 °C 8.6 °C 1013.8 hPa East 20.4 km/h 20.4 km/h 72 % 0.0 mm
21:39 13.5 °C 8.6 °C 1013.8 hPa NNW 13.0 km/h 13.0 km/h 72 % 0.0 mm
21:40 10.6 °C 2.7 °C 1015.8 hPa WSW 4.8 km/h 4.8 km/h 58 % 0.0 mm
21:44 13.4 °C 8.2 °C 1014.8 hPa ENE 9.5 km/h 9.5 km/h 71 % 0.0 mm
21:49 13.4 °C 8.2 °C 1014.8 hPa ENE 7.4 km/h 7.4 km/h 71 % 0.0 mm
21:50 10.6 °C 2.2 °C 1015.8 hPa WSW 3.2 km/h 6.4 km/h 56 % 0.0 mm
21:54 13.3 °C 8.2 °C 1014.8 hPa ENE 13.0 km/h 13.0 km/h 71 % 0.0 mm
21:59 13.3 °C 8.2 °C 1014.8 hPa ENE 9.3 km/h 9.3 km/h 71 % 0.0 mm
22:00 10.5 °C 1.6 °C 1015.8 hPa WSW 3.2 km/h 6.4 km/h 54 % 0.0 mm
22:04 13.2 °C 8.1 °C 1014.8 hPa ENE 11.1 km/h 11.1 km/h 71 % 0.0 mm
22:09 13.2 °C 8.3 °C 1014.8 hPa East 9.7 km/h 9.7 km/h 72 % 0.0 mm
22:10 10.3 °C 1.4 °C 1015.8 hPa WSW 3.2 km/h 4.8 km/h 54 % 0.0 mm
22:19 13.1 °C 8.2 °C 1015.8 hPa ESE 7.4 km/h 7.4 km/h 72 % 0.0 mm
22:20 10.4 °C 0.9 °C 1015.8 hPa WSW 8.0 km/h 8.0 km/h 52 % 0.0 mm
22:24 13.1 °C 8.2 °C 1015.8 hPa ENE 9.3 km/h 9.3 km/h 72 % 0.0 mm
22:29 13.1 °C 8.2 °C 1015.8 hPa ENE 9.3 km/h 9.3 km/h 72 % 0.0 mm
22:30 10.2 °C 0.5 °C 1016.8 hPa WSW 4.8 km/h 11.3 km/h 51 % 0.0 mm
22:34 13.0 °C 8.1 °C 1015.8 hPa East 9.3 km/h 9.3 km/h 72 % 0.0 mm
22:39 13.0 °C 8.1 °C 1015.8 hPa NW 7.4 km/h 7.4 km/h 72 % 0.0 mm
22:40 10.2 °C 0.5 °C 1016.8 hPa West 8.0 km/h 9.7 km/h 51 % 0.0 mm
22:45 13.0 °C 7.9 °C 1015.8 hPa NNE 3.7 km/h 3.7 km/h 71 % 0.0 mm
22:50 13.0 °C 8.1 °C 1015.8 hPa NNE 2.3 km/h 2.3 km/h 72 % 0.0 mm
22:55 13.0 °C 8.1 °C 1015.8 hPa NNE 3.7 km/h 3.7 km/h 72 % 0.0 mm
23:00 9.8 °C -0.2 °C 1017.8 hPa West 8.0 km/h 8.0 km/h 50 % 0.0 mm
23:05 13.1 °C 7.9 °C 1015.8 hPa NE 3.9 km/h 9.5 km/h 71 % 0.0 mm
23:10 13.1 °C 7.7 °C 1015.8 hPa ENE 7.6 km/h 7.6 km/h 70 % 0.0 mm
23:15 13.1 °C 7.9 °C 1015.8 hPa East 10.3 km/h 10.3 km/h 71 % 0.0 mm
23:20 13.1 °C 7.9 °C 1015.8 hPa ENE 7.4 km/h 7.4 km/h 71 % 0.0 mm
23:25 13.0 °C 7.9 °C 1015.8 hPa ESE 6.1 km/h 6.1 km/h 71 % 0.0 mm
23:30 12.9 °C 7.8 °C 1015.8 hPa East 3.9 km/h 3.9 km/h 71 % 0.0 mm
23:35 12.9 °C 7.8 °C 1015.8 hPa ESE 9.3 km/h 9.3 km/h 71 % 0.0 mm
23:40 12.8 °C 7.7 °C 1015.8 hPa NE 4.2 km/h 4.2 km/h 71 % 0.0 mm
23:45 12.7 °C 7.6 °C 1015.8 hPa ENE 6.9 km/h 6.9 km/h 71 % 0.0 mm
23:50 12.7 °C 7.6 °C 1015.8 hPa ENE 3.7 km/h 3.7 km/h 71 % 0.0 mm
23:55 12.6 °C 7.5 °C 1015.8 hPa East 7.4 km/h 7.4 km/h 71 % 0.0 mm
Meteo Sesrovires
Elogis d' Weather Underground - 3.5 mb

Guio original per  Jim McMurry - jmcmurry@mwt.net Adaptat per a la plantilla per  Wim van der Kuil - Leuven-Template.eu

Trobareu la nostra informacio del temps tambe a:

Weather Underground

AWEKAS